Time;durP1;ratioP1;P1;durP2;ratioP2;P2;SDS_P1;SDS_P2;PMS_P1;PMS_P2;Temp;Humidity;BMP_temperature;BMP_pressure;BME280_temperature;BME280_humidity;BME280_pressure;Samples;Min_cycle;Max_cycle;Signal;HPM_P1;HPM_P2
2023/02/09 00:01:30;;;;;;;10.40;8.73;;;-5.50;99.90;;;;;;4925438;29;20047;-83
2023/02/09 00:04:01;;;;;;;10.20;6.50;;;-5.50;99.90;;;;;;4931206;29;20511;-83
2023/02/09 00:06:29;;;;;;;11.43;5.57;;;-5.50;99.90;;;;;;4921592;29;20048;-82
2023/02/09 00:08:57;;;;;;;10.10;6.45;;;-5.60;99.90;;;;;;4907842;29;20055;-82
2023/02/09 00:14:17;;;;;;;11.20;6.97;;;-5.70;99.90;;;;;;4922413;29;20401;-83
2023/02/09 00:16:49;;;;;;;9.95;5.93;;;-5.70;99.90;;;;;;4949356;29;20277;-83
2023/02/09 00:19:19;;;;;;;11.13;6.03;;;-5.80;99.90;;;;;;4937160;29;20051;-83
2023/02/09 00:21:47;;;;;;;8.48;6.40;;;-5.80;99.90;;;;;;4914559;29;20047;-83
2023/02/09 00:24:15;;;;;;;8.43;5.97;;;-5.80;99.90;;;;;;4928042;29;20662;-83
2023/02/09 00:26:44;;;;;;;7.22;5.70;;;-5.80;99.90;;;;;;4950879;29;20050;-83
2023/02/09 00:29:11;;;;;;;6.55;5.20;;;-5.70;99.90;;;;;;4909306;29;20043;-83
2023/02/09 00:31:39;;;;;;;10.43;6.55;;;-5.80;99.90;;;;;;4944547;29;20043;-83
2023/02/09 00:34:07;;;;;;;8.73;6.53;;;-5.90;99.90;;;;;;4933170;29;20642;-83
2023/02/09 00:36:36;;;;;;;9.65;8.07;;;-6.00;99.90;;;;;;4908865;29;20036;-83
2023/02/09 00:39:04;;;;;;;6.03;4.75;;;-6.00;99.90;;;;;;4922678;29;20058;-83
2023/02/09 00:44:18;;;;;;;10.90;6.53;;;-6.00;99.90;;;;;;4910336;29;20753;-82
2023/02/09 00:46:47;;;;;;;13.15;6.72;;;-6.10;99.90;;;;;;4940737;29;20055;-83
2023/02/09 00:49:15;;;;;;;8.43;5.50;;;-6.10;99.90;;;;;;4950000;29;20040;-83
2023/02/09 00:51:43;;;;;;;14.52;5.60;;;-6.10;99.90;;;;;;4927132;29;20424;-83
2023/02/09 00:54:11;;;;;;;8.65;6.65;;;-6.20;99.90;;;;;;4923942;29;20404;-83
2023/02/09 00:56:39;;;;;;;4.05;3.28;;;-6.10;99.90;;;;;;4923673;29;20040;-83
2023/02/09 00:59:07;;;;;;;7.95;5.53;;;-6.20;99.90;;;;;;4941530;29;20059;-83
2023/02/09 01:01:35;;;;;;;8.10;5.93;;;-6.10;99.90;;;;;;4904576;29;20051;-83
2023/02/09 01:04:03;;;;;;;7.28;5.53;;;-6.20;99.90;;;;;;4938421;29;20363;-83
2023/02/09 01:06:31;;;;;;;6.25;5.32;;;-6.40;99.90;;;;;;4923254;29;20046;-83
2023/02/09 01:08:59;;;;;;;11.88;6.90;;;-6.70;99.90;;;;;;4930820;29;20051;-83
2023/02/09 01:11:28;;;;;;;9.82;7.03;;;-7.00;99.90;;;;;;4936634;29;20048;-83
2023/02/09 01:13:57;;;;;;;6.88;6.05;;;-7.10;99.90;;;;;;4922579;29;20043;-83
2023/02/09 01:16:30;;;;;;;10.95;5.35;;;-7.20;99.90;;;;;;4923949;28;20047;-83
2023/02/09 01:19:00;;;;;;;8.93;6.00;;;-7.20;99.90;;;;;;4932813;29;20066;-83
2023/02/09 01:21:29;;;;;;;21.42;7.30;;;-7.30;99.90;;;;;;4908094;29;20780;-83
2023/02/09 01:23:58;;;;;;;8.38;6.15;;;-7.30;99.90;;;;;;4923878;29;20047;-83
2023/02/09 01:26:26;;;;;;;6.93;6.10;;;-7.40;99.90;;;;;;4928688;29;20051;-83
2023/02/09 01:28:54;;;;;;;13.60;5.93;;;-7.40;99.90;;;;;;4911486;29;20183;-83
2023/02/09 01:31:29;;;;;;;5.85;5.35;;;-7.40;99.90;;;;;;4932595;29;20055;-83
2023/02/09 01:33:59;;;;;;;10.50;6.00;;;-7.50;99.90;;;;;;4923174;29;20834;-83
2023/02/09 01:36:28;;;;;;;8.57;6.53;;;-7.50;99.90;;;;;;4941807;28;20059;-83
2023/02/09 01:38:58;;;;;;;7.50;5.95;;;-7.60;99.90;;;;;;4931790;29;20392;-83
2023/02/09 01:41:27;;;;;;;5.60;5.05;;;-7.60;99.90;;;;;;4915709;29;20039;-83
2023/02/09 01:44:25;;;;;;;7.30;5.67;;;-7.60;99.90;;;;;;4944086;29;20058;-83
2023/02/09 01:46:52;;;;;;;9.88;7.10;;;-7.60;99.90;;;;;;4905961;29;20853;-83
2023/02/09 01:49:26;;;;;;;9.90;8.23;;;-7.70;99.90;;;;;;4947594;29;20423;-83
2023/02/09 01:52:05;;;;;;;8.20;5.90;;;-7.70;99.90;;;;;;4928725;29;20051;-83
2023/02/09 01:54:43;;;;;;;8.13;6.07;;;-7.90;99.90;;;;;;4935395;29;20479;-83
2023/02/09 01:57:21;;;;;;;12.27;6.47;;;-7.90;99.90;;;;;;4914666;29;20514;-83
2023/02/09 01:59:55;;;;;;;11.73;6.28;;;-7.90;99.90;;;;;;4931246;29;20411;-83
2023/02/09 02:02:23;;;;;;;10.40;5.60;;;-7.90;99.90;;;;;;4910872;29;20063;-83
2023/02/09 02:04:51;;;;;;;7.90;4.53;;;-8.00;99.90;;;;;;4929764;29;20051;-83
2023/02/09 02:07:44;;;;;;;7.20;6.50;;;-8.00;99.90;;;;;;4928290;29;20055;-82
2023/02/09 02:10:12;;;;;;;5.45;4.57;;;-8.00;99.90;;;;;;4924871;29;20549;-83
2023/02/09 02:12:41;;;;;;;12.65;6.43;;;-8.00;99.90;;;;;;4922639;29;20408;-83
2023/02/09 02:15:10;;;;;;;14.68;7.07;;;-8.00;99.90;;;;;;4923230;29;20051;-83
2023/02/09 02:17:38;;;;;;;8.07;7.28;;;-8.00;99.90;;;;;;4930348;29;20054;-83
2023/02/09 02:20:47;;;;;;;4.15;3.83;;;-8.00;99.90;;;;;;4919502;29;20055;-83
2023/02/09 02:23:36;;;;;;;7.63;6.13;;;-8.00;99.90;;;;;;4924343;29;20409;-83
2023/02/09 02:26:13;;;;;;;7.13;5.85;;;-8.00;99.90;;;;;;4904594;29;20432;-83
2023/02/09 02:29:03;;;;;;;6.90;5.65;;;-8.00;99.90;;;;;;4914639;29;20058;-83
2023/02/09 02:31:53;;;;;;;5.93;5.18;;;-8.20;99.90;;;;;;4928396;29;20432;-83
2023/02/09 02:34:27;;;;;;;7.60;5.50;;;-8.30;99.90;;;;;;4935904;29;20051;-83
2023/02/09 02:37:03;;;;;;;7.07;6.43;;;-8.40;99.90;;;;;;4906982;29;20059;-83
2023/02/09 02:39:48;;;;;;;21.02;8.70;;;-8.40;99.90;;;;;;4930550;29;20051;-83
2023/02/09 02:45:37;;;;;;;11.88;5.88;;;-8.30;99.90;;;;;;4945415;28;20058;-83
2023/02/09 02:48:21;;;;;;;10.45;7.30;;;-8.40;99.90;;;;;;4941452;29;20052;-83
2023/02/09 02:50:54;;;;;;;9.65;5.93;;;-8.40;99.90;;;;;;4921955;29;20055;-83
2023/02/09 02:53:27;;;;;;;7.13;6.05;;;-8.50;99.90;;;;;;4919479;29;20039;-83
2023/02/09 02:56:10;;;;;;;4.68;4.35;;;-8.60;99.90;;;;;;4939472;29;20423;-83
2023/02/09 02:58:41;;;;;;;5.22;4.78;;;-8.70;99.90;;;;;;4925854;29;20071;-83
2023/02/09 03:01:12;;;;;;;7.97;6.55;;;-8.70;99.90;;;;;;4938206;28;20050;-83
2023/02/09 03:03:42;;;;;;;8.50;6.93;;;-8.60;99.90;;;;;;4920289;29;20432;-83
2023/02/09 03:06:12;;;;;;;12.23;5.15;;;-8.50;99.90;;;;;;4945086;28;20411;-83
2023/02/09 03:08:55;;;;;;;8.25;7.53;;;-8.60;99.90;;;;;;4943460;28;20440;-83
2023/02/09 03:11:29;;;;;;;7.30;5.88;;;-8.60;99.90;;;;;;4934917;29;20075;-83
2023/02/09 03:14:16;;;;;;;6.70;5.30;;;-8.60;99.90;;;;;;4946678;28;20047;-83
2023/02/09 03:16:59;;;;;;;8.30;6.47;;;-8.60;99.90;;;;;;4913837;29;20055;-83
2023/02/09 03:19:53;;;;;;;9.68;6.03;;;-8.50;99.90;;;;;;4947642;29;20451;-83
2023/02/09 03:22:41;;;;;;;7.13;5.10;;;-8.40;99.90;;;;;;4910619;29;20043;-83
2023/02/09 03:25:18;;;;;;;5.55;5.00;;;-8.30;99.90;;;;;;4923829;29;20412;-83
2023/02/09 03:27:56;;;;;;;8.70;5.43;;;-8.40;99.90;;;;;;4928467;29;20058;-83
2023/02/09 03:30:24;;;;;;;8.88;5.55;;;-8.40;99.90;;;;;;4936457;28;20078;-83
2023/02/09 03:32:55;;;;;;;6.15;5.60;;;-8.50;99.90;;;;;;4924968;28;20058;-83
2023/02/09 03:35:37;;;;;;;8.45;5.75;;;-8.60;99.90;;;;;;4929827;29;20662;-83
2023/02/09 03:38:06;;;;;;;6.13;4.65;;;-8.70;99.90;;;;;;4936237;29;20438;-83
2023/02/09 03:40:34;;;;;;;10.52;5.82;;;-8.70;99.90;;;;;;4919371;29;20047;-83
2023/02/09 03:43:01;;;;;;;11.13;5.50;;;-8.70;99.90;;;;;;4930848;29;20051;-83
2023/02/09 03:45:29;;;;;;;5.40;4.88;;;-8.70;99.90;;;;;;4913732;29;20077;-83
2023/02/09 03:47:57;;;;;;;10.27;5.50;;;-8.70;99.90;;;;;;4927174;29;20423;-83
2023/02/09 03:50:25;;;;;;;12.93;5.55;;;-9.00;99.90;;;;;;4923619;29;20054;-83
2023/02/09 03:52:53;;;;;;;4.57;4.28;;;-9.10;99.90;;;;;;4906074;29;20040;-84
2023/02/09 03:55:21;;;;;;;6.32;5.68;;;-9.20;99.90;;;;;;4912339;29;20047;-83
2023/02/09 03:57:48;;;;;;;7.00;6.45;;;-9.20;99.90;;;;;;4924415;29;20070;-83
2023/02/09 04:00:16;;;;;;;8.27;6.32;;;-9.20;99.90;;;;;;4925000;28;20167;-81
2023/02/09 04:02:44;;;;;;;9.68;7.82;;;-9.10;99.90;;;;;;4922600;29;20078;-80
2023/02/09 04:05:12;;;;;;;5.95;5.43;;;-9.00;99.90;;;;;;4927864;29;20074;-80
2023/02/09 04:07:40;;;;;;;9.35;6.68;;;-9.00;99.90;;;;;;4928660;29;20070;-81
2023/02/09 04:10:09;;;;;;;5.55;5.05;;;-9.00;99.90;;;;;;4948864;28;20040;-80
2023/02/09 04:12:36;;;;;;;7.40;4.60;;;-8.90;99.90;;;;;;4932212;29;20047;-80
2023/02/09 04:15:04;;;;;;;6.43;5.88;;;-8.90;99.90;;;;;;4933338;29;20078;-81
2023/02/09 04:17:32;;;;;;;11.40;6.05;;;-8.80;99.90;;;;;;4932860;29;20048;-81
2023/02/09 04:20:00;;;;;;;4.85;4.45;;;-8.80;99.90;;;;;;4934737;29;20051;-81
2023/02/09 04:23:04;;;;;;;7.82;6.00;;;-8.80;99.90;;;;;;4936673;29;20407;-81
2023/02/09 04:25:31;;;;;;;7.80;7.05;;;-8.80;99.90;;;;;;4913117;29;20035;-81
2023/02/09 04:27:59;;;;;;;9.18;6.22;;;-8.80;99.90;;;;;;4923020;29;20395;-81
2023/02/09 04:30:27;;;;;;;7.22;5.68;;;-8.80;99.90;;;;;;4955753;29;20043;-81
2023/02/09 04:32:54;;;;;;;5.88;5.38;;;-8.80;99.90;;;;;;4953762;28;20062;-81
2023/02/09 04:35:22;;;;;;;9.45;8.48;;;-8.80;99.90;;;;;;4921638;29;20047;-80
2023/02/09 04:37:52;;;;;;;7.75;7.07;;;-8.80;99.90;;;;;;4928480;29;20054;-81
2023/02/09 04:40:22;;;;;;;5.20;4.47;;;-8.80;99.90;;;;;;4924817;29;20051;-81
2023/02/09 04:42:50;;;;;;;6.53;5.88;;;-8.80;99.90;;;;;;4953963;29;20059;-81
2023/02/09 04:45:18;;;;;;;6.18;5.57;;;-8.80;99.90;;;;;;4938601;29;20428;-80
2023/02/09 04:47:46;;;;;;;17.05;6.93;;;-8.80;99.90;;;;;;4923418;29;20388;-81
2023/02/09 04:50:13;;;;;;;6.25;4.85;;;-8.90;99.90;;;;;;4948621;29;20035;-81
2023/02/09 04:52:41;;;;;;;13.85;7.97;;;-9.00;99.90;;;;;;4948414;28;20136;-81
2023/02/09 04:55:08;;;;;;;7.20;5.47;;;-8.90;99.90;;;;;;4951531;28;20053;-81
2023/02/09 05:00:22;;;;;;;6.95;5.50;;;-8.80;99.90;;;;;;4974011;28;20128;-81
2023/02/09 05:02:50;;;;;;;6.28;4.57;;;-8.80;99.90;;;;;;4977427;28;20046;-81
2023/02/09 05:05:18;;;;;;;8.98;6.72;;;-8.70;99.90;;;;;;4937218;28;20036;-81
2023/02/09 05:07:46;;;;;;;8.60;5.13;;;-8.80;99.90;;;;;;4976069;28;20055;-81
2023/02/09 05:10:13;;;;;;;6.20;5.57;;;-8.80;99.90;;;;;;4959437;28;20039;-81
2023/02/09 05:12:41;;;;;;;12.57;7.70;;;-8.80;99.90;;;;;;4950209;28;20042;-81
2023/02/09 05:15:09;;;;;;;9.60;5.15;;;-8.80;99.90;;;;;;4977780;28;20043;-81
2023/02/09 05:17:36;;;;;;;7.10;4.18;;;-8.80;99.90;;;;;;4957246;28;20047;-81
2023/02/09 05:20:06;;;;;;;8.98;8.13;;;-8.90;99.90;;;;;;4933896;29;20043;-81
2023/02/09 05:22:34;;;;;;;7.10;6.50;;;-8.90;99.90;;;;;;4948349;28;20047;-81
2023/02/09 05:25:02;;;;;;;6.47;5.80;;;-8.90;99.90;;;;;;4974480;29;20042;-81
2023/02/09 05:27:30;;;;;;;9.43;4.88;;;-8.90;99.90;;;;;;4975922;28;20043;-81
2023/02/09 05:29:58;;;;;;;9.60;5.57;;;-9.00;99.90;;;;;;4944962;28;20408;-81
2023/02/09 05:32:25;;;;;;;7.90;4.82;;;-9.10;99.90;;;;;;4939942;28;20062;-81
2023/02/09 05:34:54;;;;;;;6.03;4.75;;;-9.20;99.90;;;;;;4931706;28;20483;-81
2023/02/09 05:37:21;;;;;;;6.88;6.28;;;-9.20;99.90;;;;;;4913025;28;20036;-81
2023/02/09 05:39:50;;;;;;;7.25;6.55;;;-9.20;99.90;;;;;;4927035;29;20051;-80
2023/02/09 05:42:17;;;;;;;9.10;6.57;;;-9.20;99.90;;;;;;4947290;28;20058;-80
2023/02/09 05:44:50;;;;;;;10.32;5.72;;;-9.10;99.90;;;;;;4929779;29;20070;-80
2023/02/09 05:47:19;;;;;;;12.48;6.63;;;-9.10;99.90;;;;;;4948582;28;20059;-80
2023/02/09 05:49:47;;;;;;;10.73;7.43;;;-9.10;99.90;;;;;;4938028;29;20047;-81
2023/02/09 05:52:19;;;;;;;4.50;4.10;;;-9.10;99.90;;;;;;4933545;29;20055;-80
2023/02/09 05:54:47;;;;;;;7.40;6.15;;;-9.10;99.90;;;;;;4933183;29;20444;-81
2023/02/09 05:57:16;;;;;;;11.35;4.65;;;-9.00;99.90;;;;;;4927302;28;20055;-81
2023/02/09 05:59:43;;;;;;;7.07;5.30;;;-9.00;99.90;;;;;;4918482;29;20063;-81
2023/02/09 06:02:11;;;;;;;5.45;4.38;;;-9.00;99.90;;;;;;4936516;28;20043;-79
2023/02/09 06:04:38;;;;;;;10.35;5.32;;;-9.10;99.90;;;;;;4930463;28;20043;-80
2023/02/09 06:07:06;;;;;;;7.95;7.07;;;-9.00;99.90;;;;;;4943730;28;20047;-78
2023/02/09 06:09:33;;;;;;;7.80;5.43;;;-9.00;99.90;;;;;;4926161;29;20059;-80
2023/02/09 06:12:01;;;;;;;7.88;5.43;;;-8.80;99.90;;;;;;4940652;29;20044;-78
2023/02/09 06:14:29;;;;;;;7.95;5.38;;;-8.70;99.90;;;;;;4931633;29;20055;-78
2023/02/09 06:16:58;;;;;;;7.00;5.22;;;-8.70;99.90;;;;;;4912263;29;20046;-78
2023/02/09 06:19:26;;;;;;;7.68;6.82;;;-8.90;99.90;;;;;;4941975;29;20051;-79
2023/02/09 06:21:53;;;;;;;9.40;6.45;;;-9.10;99.90;;;;;;4914600;29;20209;-80
2023/02/09 06:24:21;;;;;;;7.85;5.85;;;-9.20;99.90;;;;;;4927360;29;20504;-79
2023/02/09 06:26:49;;;;;;;13.00;8.57;;;-9.20;99.90;;;;;;4918428;29;20082;-80
2023/02/09 06:29:16;;;;;;;11.77;7.22;;;-9.30;99.90;;;;;;4930994;29;20062;-80
2023/02/09 06:31:44;;;;;;;6.78;6.13;;;-9.20;99.90;;;;;;4939244;29;20055;-79
2023/02/09 06:34:12;;;;;;;6.90;6.32;;;-9.10;99.90;;;;;;4924023;29;20052;-80
2023/02/09 06:36:39;;;;;;;6.38;5.55;;;-9.00;99.90;;;;;;4926431;29;20047;-81
2023/02/09 06:39:09;;;;;;;4.18;3.90;;;-8.90;99.90;;;;;;4932793;28;20049;-79
2023/02/09 06:41:36;;;;;;;2.42;2.33;;;-8.70;99.90;;;;;;4933390;29;20519;-79
2023/02/09 06:44:04;;;;;;;8.77;6.30;;;-8.60;99.90;;;;;;4940356;29;20511;-79
2023/02/09 06:46:32;;;;;;;8.48;7.78;;;-8.50;99.90;;;;;;4922992;29;20056;-79
2023/02/09 06:49:00;;;;;;;6.88;5.30;;;-8.50;99.90;;;;;;4937077;29;20393;-79
2023/02/09 06:51:31;;;;;;;9.85;6.18;;;-8.50;99.90;;;;;;4940838;29;20175;-80
2023/02/09 06:53:59;;;;;;;7.82;6.68;;;-8.50;99.90;;;;;;4927231;28;20451;-79
2023/02/09 06:56:27;;;;;;;6.28;5.68;;;-8.50;99.90;;;;;;4907806;28;20050;-79
2023/02/09 06:58:55;;;;;;;8.57;6.30;;;-8.60;99.90;;;;;;4919234;29;20051;-78
2023/02/09 07:01:23;;;;;;;8.80;7.25;;;-8.70;99.90;;;;;;4923484;28;20047;-79
2023/02/09 07:03:51;;;;;;;5.85;5.35;;;-8.70;99.90;;;;;;4908185;29;20767;-79
2023/02/09 07:06:20;;;;;;;6.22;5.63;;;-8.70;99.90;;;;;;4926662;29;20074;-79
2023/02/09 07:08:50;;;;;;;7.60;6.43;;;-8.60;99.90;;;;;;4918783;28;20655;-79
2023/02/09 07:11:18;;;;;;;11.57;6.63;;;-8.60;99.90;;;;;;4927318;29;20047;-79
2023/02/09 07:13:46;;;;;;;13.27;6.15;;;-8.50;99.90;;;;;;4917892;29;20051;-79
2023/02/09 07:16:16;;;;;;;9.52;8.38;;;-8.30;99.90;;;;;;4912395;29;20416;-79
2023/02/09 07:18:44;;;;;;;6.63;6.03;;;-8.20;99.90;;;;;;4931902;29;20052;-79
2023/02/09 07:21:21;;;;;;;9.80;6.10;;;-8.10;99.90;;;;;;4915825;29;20036;-79
2023/02/09 07:23:51;;;;;;;13.48;6.97;;;-7.90;99.90;;;;;;4943792;29;20051;-79
2023/02/09 07:26:18;;;;;;;8.15;7.35;;;-7.80;99.90;;;;;;4940128;28;20048;-79
2023/02/09 07:28:46;;;;;;;9.65;7.93;;;-7.70;99.90;;;;;;4949524;28;20035;-79
2023/02/09 07:31:14;;;;;;;7.97;7.28;;;-7.70;99.90;;;;;;4926678;28;20047;-79
2023/02/09 07:33:43;;;;;;;9.23;6.65;;;-7.60;99.90;;;;;;4918426;29;20051;-79
2023/02/09 07:36:12;;;;;;;8.05;6.18;;;-7.50;99.90;;;;;;4908803;29;20055;-79
2023/02/09 07:38:41;;;;;;;11.75;9.07;;;-7.40;99.90;;;;;;4939979;28;20062;-79
2023/02/09 07:41:15;;;;;;;10.75;6.53;;;-7.40;99.90;;;;;;4909465;29;20055;-79
2023/02/09 07:43:44;;;;;;;10.02;7.32;;;-7.30;99.90;;;;;;4938986;29;20051;-79
2023/02/09 07:46:20;;;;;;;13.27;8.50;;;-7.20;99.90;;;;;;4941072;28;20280;-79
2023/02/09 07:48:51;;;;;;;8.93;8.07;;;-7.10;99.90;;;;;;4910993;29;20408;-79
2023/02/09 07:51:27;;;;;;;9.27;6.93;;;-7.10;99.90;;;;;;4902950;29;20043;-80
2023/02/09 07:53:56;;;;;;;8.27;5.10;;;-7.00;99.90;;;;;;4931482;29;20751;-79
2023/02/09 07:56:25;;;;;;;8.25;6.65;;;-6.90;99.90;;;;;;4939868;28;20051;-80
2023/02/09 07:58:54;;;;;;;8.52;6.75;;;-6.80;99.90;;;;;;4920925;28;20435;-79
2023/02/09 08:01:23;;;;;;;8.52;6.72;;;-6.60;99.90;;;;;;4933583;29;20491;-80
2023/02/09 08:03:52;;;;;;;7.87;7.20;;;-6.50;99.90;;;;;;4924003;29;20055;-79
2023/02/09 08:06:32;;;;;;;6.95;6.25;;;-6.40;99.90;;;;;;4926849;29;20080;-79
2023/02/09 08:09:11;;;;;;;9.23;7.32;;;-6.30;99.90;;;;;;4935249;29;20035;-79
2023/02/09 08:11:42;;;;;;;15.77;10.57;;;-6.10;99.90;;;;;;4927774;29;20419;-79
2023/02/09 08:14:17;;;;;;;8.32;6.90;;;-6.00;99.90;;;;;;4944858;28;20043;-79
2023/02/09 08:16:46;;;;;;;11.45;8.07;;;-5.90;99.90;;;;;;4923031;29;20227;-79
2023/02/09 08:19:18;;;;;;;11.93;7.22;;;-5.70;99.90;;;;;;4922408;29;20058;-79
2023/02/09 08:21:47;;;;;;;13.23;6.93;;;-5.60;99.90;;;;;;4910249;29;20039;-79
2023/02/09 08:24:17;;;;;;;16.90;7.35;;;-5.40;99.90;;;;;;4922744;29;20051;-79
2023/02/09 08:26:44;;;;;;;11.45;7.22;;;-5.30;99.90;;;;;;4902517;29;20265;-79
2023/02/09 08:29:12;;;;;;;11.50;7.85;;;-5.20;99.90;;;;;;4919624;29;20281;-79
2023/02/09 08:31:48;;;;;;;14.05;8.27;;;-5.10;99.90;;;;;;4928436;29;20062;-79
2023/02/09 08:34:15;;;;;;;16.67;9.57;;;-4.90;99.90;;;;;;4916937;29;20058;-79
2023/02/09 08:36:43;;;;;;;22.20;7.78;;;-4.80;99.90;;;;;;4944417;29;20207;-79
2023/02/09 08:39:11;;;;;;;17.00;9.80;;;-4.70;99.90;;;;;;4935912;29;20043;-79
2023/02/09 08:41:39;;;;;;;12.57;8.38;;;-4.60;99.90;;;;;;4940826;28;20047;-79
2023/02/09 08:44:07;;;;;;;11.68;7.13;;;-4.50;99.90;;;;;;4941238;29;20066;-79
2023/02/09 08:46:34;;;;;;;12.15;6.07;;;-4.30;99.90;;;;;;4924826;29;20067;-79
2023/02/09 08:49:06;;;;;;;12.82;7.78;;;-4.30;99.90;;;;;;4937471;29;20050;-79
2023/02/09 08:51:34;;;;;;;12.32;9.23;;;-4.20;99.90;;;;;;4944980;29;20487;-79
2023/02/09 08:54:02;;;;;;;12.65;8.50;;;-4.10;99.90;;;;;;4943065;28;20055;-79
2023/02/09 08:56:30;;;;;;;14.65;8.18;;;-3.90;99.90;;;;;;4912696;29;20047;-79
2023/02/09 08:58:58;;;;;;;14.30;8.77;;;-3.80;99.90;;;;;;4935044;29;20583;-79
2023/02/09 09:01:29;;;;;;;9.70;8.35;;;-3.80;99.90;;;;;;4938836;29;20051;-79
2023/02/09 09:03:59;;;;;;;8.25;7.35;;;-3.70;99.90;;;;;;4928179;29;20051;-80
2023/02/09 09:06:27;;;;;;;7.38;5.50;;;-3.60;99.90;;;;;;4920748;29;20078;-79
2023/02/09 09:08:54;;;;;;;9.25;8.35;;;-3.50;99.90;;;;;;4931930;29;21063;-79
2023/02/09 09:11:22;;;;;;;7.28;6.68;;;-3.40;99.90;;;;;;4924987;29;20051;-79
2023/02/09 09:13:50;;;;;;;5.30;4.63;;;-2.90;99.90;;;;;;4942752;29;20051;-79
2023/02/09 09:16:21;;;;;;;8.65;6.15;;;-2.50;99.90;;;;;;4923319;29;20078;-80
2023/02/09 09:18:50;;;;;;;9.95;8.65;;;-1.20;99.90;;;;;;4929465;29;20058;-79
2023/02/09 09:21:18;;;;;;;8.75;7.93;;;-1.10;99.90;;;;;;4947057;28;20042;-79
2023/02/09 09:23:46;;;;;;;4.65;4.22;;;-0.80;99.90;;;;;;4914160;29;20067;-80
2023/02/09 09:26:16;;;;;;;11.32;6.53;;;0.70;99.90;;;;;;4933023;28;20297;-79
2023/02/09 09:28:44;;;;;;;6.13;4.75;;;1.90;99.90;;;;;;4942487;29;20281;-80
2023/02/09 09:31:14;;;;;;;7.05;6.40;;;2.30;99.90;;;;;;4943777;29;20102;-79
2023/02/09 09:33:42;;;;;;;11.43;6.47;;;2.60;99.90;;;;;;4928972;29;20047;-79
2023/02/09 09:36:11;;;;;;;15.38;6.97;;;2.80;99.90;;;;;;4922114;29;20077;-80
2023/02/09 09:38:39;;;;;;;9.27;6.90;;;2.90;99.90;;;;;;4923431;29;20231;-81
2023/02/09 09:41:36;;;;;;;11.52;10.38;;;2.90;99.90;;;;;;4933003;29;20066;-78
2023/02/09 09:44:26;;;;;;;8.95;6.95;;;3.00;99.90;;;;;;4927719;29;20056;-77
2023/02/09 09:46:59;;;;;;;56.53;23.35;;;2.50;99.90;;;;;;4911545;29;20048;-78
2023/02/09 09:49:30;;;;;;;13.27;9.60;;;2.50;99.90;;;;;;4915195;29;20044;-77
2023/02/09 09:52:03;;;;;;;7.18;5.90;;;2.50;99.90;;;;;;4913307;29;20063;-78
2023/02/09 09:54:34;;;;;;;15.57;6.80;;;2.40;99.90;;;;;;4943487;29;20067;-78
2023/02/09 09:57:02;;;;;;;7.55;6.65;;;1.90;99.90;;;;;;4926229;29;20051;-77
2023/02/09 09:59:38;;;;;;;7.20;5.38;;;0.80;99.90;;;;;;4948565;29;20058;-77
2023/02/09 10:02:27;;;;;;;8.52;6.22;;;0.30;99.90;;;;;;4940640;29;20071;-77
2023/02/09 10:05:20;;;;;;;10.25;7.63;;;0.20;99.90;;;;;;4949779;29;20050;-77
2023/02/09 10:08:21;;;;;;;9.95;7.18;;;0.00;99.90;;;;;;4944612;29;20070;-77
2023/02/09 10:11:00;;;;;;;8.70;7.35;;;-0.20;99.90;;;;;;4914325;29;20051;-77
2023/02/09 10:13:38;;;;;;;7.95;6.68;;;-0.30;99.90;;;;;;4943688;29;20047;-77
2023/02/09 10:16:23;;;;;;;9.52;6.05;;;-0.40;99.90;;;;;;4947077;29;20047;-77
2023/02/09 10:18:55;;;;;;;11.05;7.25;;;-0.60;99.90;;;;;;4922251;29;20059;-78
2023/02/09 10:26:03;;;;;;;12.85;8.65;;;-0.60;99.90;;;;;;4952358;28;20027;-77
2023/02/09 10:28:36;;;;;;;10.15;6.97;;;-0.60;99.90;;;;;;4970481;28;20069;-77
2023/02/09 10:31:16;;;;;;;7.55;6.32;;;-0.40;99.90;;;;;;4971821;28;20051;-79
2023/02/09 10:33:49;;;;;;;;;;;-0.20;99.90;;;;;;4971853;28;20038;-80
2023/02/09 10:36:32;;;;;;;10.38;6.53;;;-0.10;99.90;;;;;;4953669;28;19910;-79
2023/02/09 10:39:15;;;;;;;16.88;7.72;;;-0.10;99.90;;;;;;4972985;28;20063;-79
2023/02/09 10:41:49;;;;;;;16.10;8.15;;;0.10;99.90;;;;;;4955193;28;20035;-79
2023/02/09 10:44:19;;;;;;;13.75;8.15;;;0.40;99.90;;;;;;4954231;28;20070;-79
2023/02/09 10:46:48;;;;;;;7.68;6.53;;;0.60;99.90;;;;;;4958998;28;20050;-79
2023/02/09 10:49:51;;;;;;;11.15;7.55;;;0.70;99.90;;;;;;4944810;28;20041;-78
2023/02/09 10:52:25;;;;;;;10.48;9.18;;;0.70;99.90;;;;;;4949737;28;20063;-78
2023/02/09 10:55:01;;;;;;;8.50;6.72;;;1.00;99.90;;;;;;4972518;28;20028;-79
2023/02/09 10:57:38;;;;;;;11.23;7.20;;;1.10;99.90;;;;;;4971584;28;20043;-79
2023/02/09 11:00:15;;;;;;;12.65;7.75;;;1.10;99.90;;;;;;4955901;28;20049;-79
2023/02/09 11:03:02;;;;;;;10.15;7.03;;;1.10;99.90;;;;;;4940016;28;20035;-79
2023/02/09 11:05:33;;;;;;;9.98;7.65;;;1.20;99.90;;;;;;4969141;29;20055;-79
2023/02/09 11:08:20;;;;;;;6.03;5.47;;;1.20;99.90;;;;;;4948189;29;20070;-79
2023/02/09 11:10:58;;;;;;;8.35;6.00;;;1.30;99.90;;;;;;4939841;29;20041;-78
2023/02/09 11:13:26;;;;;;;12.65;7.20;;;1.40;99.90;;;;;;4971033;28;20059;-79
2023/02/09 11:16:17;;;;;;;8.30;6.00;;;1.40;99.90;;;;;;4940260;28;20055;-78
2023/02/09 11:18:56;;;;;;;14.55;9.23;;;1.50;99.90;;;;;;4928338;29;20059;-78
2023/02/09 11:22:00;;;;;;;13.70;7.82;;;1.40;99.90;;;;;;4930140;29;20048;-78
2023/02/09 11:24:34;;;;;;;10.27;7.75;;;1.30;99.90;;;;;;4933688;28;20689;-78
2023/02/09 11:27:23;;;;;;;14.68;7.63;;;1.50;99.90;;;;;;4942934;29;20074;-78
2023/02/09 11:30:13;;;;;;;13.35;6.43;;;1.50;99.90;;;;;;4925947;29;20754;-78
2023/02/09 11:33:15;;;;;;;8.10;6.68;;;1.50;99.90;;;;;;4940754;29;20424;-78
2023/02/09 11:35:45;;;;;;;7.15;6.38;;;1.40;99.90;;;;;;4935168;29;20681;-78
2023/02/09 11:38:17;;;;;;;4.70;4.32;;;1.60;99.90;;;;;;4945920;29;20482;-78
2023/02/09 11:40:47;;;;;;;9.98;7.68;;;1.80;99.90;;;;;;4912638;29;20892;-78
2023/02/09 11:43:31;;;;;;;8.45;7.63;;;1.80;99.90;;;;;;4921186;29;20427;-78
2023/02/09 11:46:04;;;;;;;7.68;5.15;;;1.80;99.90;;;;;;4947758;28;20702;-78
2023/02/09 11:48:44;;;;;;;12.43;7.30;;;1.80;99.90;;;;;;4946212;28;20415;-78
2023/02/09 11:51:18;;;;;;;18.88;7.47;;;1.80;99.90;;;;;;4946820;29;20043;-78
2023/02/09 11:54:11;;;;;;;9.95;6.47;;;2.10;99.90;;;;;;4932642;29;20059;-78
2023/02/09 11:56:49;;;;;;;18.88;8.32;;;2.20;99.90;;;;;;4926812;29;20047;-78
2023/02/09 11:59:38;;;;;;;9.05;6.07;;;2.40;99.90;;;;;;4945235;29;20066;-78
2023/02/09 12:02:33;;;;;;;10.10;5.97;;;2.40;99.90;;;;;;4910048;29;20066;-78
2023/02/09 12:05:04;;;;;;;12.77;5.22;;;2.30;99.90;;;;;;4916964;29;20055;-78
2023/02/09 12:07:44;;;;;;;5.60;4.63;;;2.40;99.90;;;;;;4929894;29;20058;-78
2023/02/09 12:10:37;;;;;;;25.85;5.30;;;2.60;99.90;;;;;;4934097;29;20047;-78
2023/02/09 12:13:12;;;;;;;10.73;5.50;;;2.70;99.90;;;;;;4939132;28;20047;-78
2023/02/09 12:15:50;;;;;;;6.03;5.28;;;2.80;99.90;;;;;;4945159;29;20056;-78
2023/02/09 12:18:41;;;;;;;8.30;6.45;;;2.80;99.90;;;;;;4920528;29;20221;-78
2023/02/09 12:21:09;;;;;;;6.90;4.72;;;3.00;99.90;;;;;;4925735;29;20051;-78
2023/02/09 12:23:37;;;;;;;6.90;5.85;;;3.20;99.90;;;;;;4934706;29;20082;-78
2023/02/09 12:26:11;;;;;;;12.48;5.45;;;3.20;99.90;;;;;;4942061;29;20360;-79
2023/02/09 12:29:05;;;;;;;5.85;5.20;;;3.10;99.90;;;;;;4941131;29;20047;-80
2023/02/09 12:32:13;;;;;;;10.82;4.93;;;3.00;99.90;;;;;;4927415;29;20055;-78
2023/02/09 12:34:50;;;;;;;4.30;3.53;;;3.00;99.90;;;;;;4897510;29;20054;-78
2023/02/09 12:37:26;;;;;;;7.68;4.85;;;3.20;99.90;;;;;;4925769;29;20047;-78
2023/02/09 12:40:09;;;;;;;10.10;5.88;;;3.30;99.90;;;;;;4944060;29;20039;-78
2023/02/09 12:42:40;;;;;;;7.68;4.47;;;3.40;99.90;;;;;;4942003;28;20078;-78
2023/02/09 12:45:35;;;;;;;10.55;6.47;;;3.60;99.90;;;;;;4941547;28;20051;-79
2023/02/09 12:48:09;;;;;;;5.47;3.38;;;3.60;99.00;;;;;;4932940;29;20566;-78
2023/02/09 12:50:51;;;;;;;5.65;5.13;;;3.70;99.00;;;;;;4934459;29;20054;-79
2023/02/09 12:53:31;;;;;;;6.63;5.97;;;3.60;99.90;;;;;;4927700;29;20288;-79
2023/02/09 12:56:22;;;;;;;10.17;4.97;;;3.70;99.90;;;;;;4934733;29;20052;-78
2023/02/09 12:58:50;;;;;;;6.97;6.03;;;3.60;98.10;;;;;;4918234;29;20058;-79
2023/02/09 13:01:17;;;;;;;5.93;5.07;;;3.50;98.40;;;;;;4943226;28;20039;-80
2023/02/09 13:04:04;;;;;;;12.50;6.40;;;3.60;99.40;;;;;;4941387;29;20043;-79
2023/02/09 13:06:40;;;;;;;9.32;6.60;;;3.80;99.30;;;;;;4922714;28;20047;-79
2023/02/09 13:09:15;;;;;;;10.18;9.13;;;4.00;97.80;;;;;;4918539;29;20042;-81
2023/02/09 13:11:50;;;;;;;8.40;6.28;;;4.30;98.70;;;;;;4940992;29;20051;-82
2023/02/09 13:14:21;;;;;;;3.55;3.33;;;4.20;96.90;;;;;;4923751;29;20051;-81
2023/02/09 13:17:25;;;;;;;14.83;4.27;;;4.10;94.80;;;;;;4926537;29;20047;-81
2023/02/09 13:20:25;;;;;;;8.02;5.65;;;4.00;96.00;;;;;;4921486;29;20058;-81
2023/02/09 13:23:21;;;;;;;8.50;5.28;;;4.20;95.10;;;;;;4897034;29;20066;-80
2023/02/09 13:25:56;;;;;;;10.68;5.55;;;4.30;98.30;;;;;;4906496;29;20047;-80
2023/02/09 13:28:27;;;;;;;5.65;5.13;;;4.40;97.70;;;;;;4906553;29;20451;-80
2023/02/09 13:30:55;;;;;;;5.53;4.90;;;4.10;94.60;;;;;;4888132;29;20056;-80
2023/02/09 13:33:29;;;;;;;6.57;5.93;;;4.40;95.30;;;;;;4902219;29;20051;-79